Tiempo atmosférico en la estación meteorológica de Valmadrid, Zaragoza (535 m.)



Fecha
DESCASC
Temp. máxima en grados centígrados (hora)
DESCASC
Temp. mínima en grados centígrados (hora)
DESCASC
Temp. media en grados centígrados
DESCASC
Racha de viento máxima en m/sg (hora)
DESCASC
Velocidad máxima media en intervalos de 10 minutos(hora)
DESCASC
Precipitaciones diarias en mm
DESCASC
Precipitaciones de 00:00 a 06:00 en mm
DESCASC
Precipitaciones de 06:00 a 12:00 en mm
DESCASC
Precipitaciones de 12:00 a 18:00 en mm
DESCASC
Precipitaciones de 18:00 a 24:00 en mm
DESCASC
17-09-2020 28.8 (17:10) 19.3 (07:40) 24 10.28 (17:50) 6.67 (17:20) 0 0 0 0 0
15-09-2020 30.8 (16:00) 16.5 (08:10) 23.6 13.61 (03:00) 8.61 (03:00) 0.2 0.2 0 0 0
14-09-2020 31.4 (16:00) 13.9 (08:00) 22.6 10.28 (18:20) 6.39 (18:20) 0 0 0 0 0
13-09-2020 32.2 (17:20) 13.8 (00:00) 23 8.33 (21:00) 5.83 (21:00) 0 0 0 0 0
12-09-2020 30.7 (15:40) 16.5 (08:10) 23.6 6.67 (10:10) 3.61 (11:10) 0 0 0 0 0
11-09-2020 30.4 (17:30) 16.6 (00:00) 23.5 12.78 (01:20) 8.06 (04:30) 0 0 0 0 0
10-09-2020 30 (17:40) 14.2 (00:00) 22.1 14.44 (22:20) 10.28 (22:20) 0 0 0 0 0
09-09-2020 28.7 (16:40) 12.8 (07:20) 20.8 10 (21:50) 6.94 (21:40) 0.8 0 0 0 0.8
08-09-2020 26.4 (16:40) 12.5 (00:00) 19.4 15 (01:40) 11.39 (01:40) 0 0 0 0 0
07-09-2020 23.6 (16:00) 13.4 (07:00) 18.5 22.78 (07:20) 15 (07:20) 0 0 0 0 0
06-09-2020 23.9 (14:40) 15.5 (00:00) 19.7 20.28 (22:40) 14.44 (22:40) 0 0 0 0 0
05-09-2020 31.3 (17:00) 13.6 (00:00) 22.4 16.39 (23:59) 11.94 (23:59) 0 0 0 0 0
04-09-2020 31.1 (16:10) 13.1 (00:00) 22.1 7.78 (16:00) 4.72 (21:50) 0 0 0 0 0
03-09-2020 29.7 (18:30) 9.7 (00:00) 19.7 6.94 (03:00) 3.61 (07:30) 0 0 0 0 0
02-09-2020 26.6 (16:40) 14.4 (00:00) 20.5 16.94 (04:50) 12.5 (04:30) 0 0 0 0 0
01-09-2020 26.8 (17:30) 12.7 (00:00) 19.7 11.67 (23:20) 8.61 (23:30) 0 0 0 0 0
31-08-2020 26.7 (17:50) 11.3 (00:00) 19 15.83 (00:50) 11.11 (00:50) 0 0 0 0 0
30-08-2020 20.9 (14:40) 11.6 (00:00) 16.3 18.33 (04:20) 12.5 (02:00) 0 0 0 0 0
29-08-2020 22.9 (17:00) 13.6 (00:00) 18.3 18.89 (20:00) 13.61 (18:40) 0 0 0 0 0
28-08-2020 28.9 (15:00) 15.7 (00:00) 22.3 18.06 (23:59) 11.67 (21:30) 0 0 0 0 0
27-08-2020 35.6 (18:10) 20.6 (00:00) 28.1 8.89 (07:10) 5 (11:00) 0 0 0 0 0
26-08-2020 36.1 (18:00) 19.1 (00:00) 27.6 12.78 (03:50) 7.22 (03:30) 0 0 0 0 0
25-08-2020 35.4 (17:00) 15.5 (00:00) 25.5 7.22 (17:20) 3.89 (19:50) 0 0 0 0 0
24-08-2020 30.1 (17:40) 15.7 (07:20) 22.9 15 (02:10) 9.72 (02:10) 0 0 0 0 0
23-08-2020 29 (16:20) 17.2 (00:00) 23.1 17.78 (23:00) 12.5 (22:50) 0 0 0 0 0
22-08-2020 31.3 (16:50) 18.9 (00:00) 25.1 11.94 (23:30) 8.61 (23:30) 0 0 0 0 0
21-08-2020 36.6 (18:10) 17.2 (06:20) 26.9 13.33 (21:40) 9.72 (21:40) 0 0 0 0 0

Gráficas

Temp. máximas Temp. mínimas Temp. medias Precipitaciones Rachas de viento máximas Velocidades máximas media en intervalos de 10 minutos

Datos horarios

Fecha y hora oficial Temperatura (ºC) Velocidad del viento (km/h) Dirección del viento Racha (km/h) Dirección de racha Precipitación (mm) Presión (hPa) Tendencia (hPa) Humedad (%)
2020-09-19 23:00:00 17.8 5 Sur 22 Sudoeste 0 -- -- 68
2020-09-19 22:00:00 18.8 16 Sudoeste 31 Oeste 0 -- -- 64
2020-09-19 21:00:00 19.8 21 Oeste 32 Oeste 0.2 -- -- 59
2020-09-19 20:00:00 20.6 15 Oeste 31 Oeste 0 -- -- 55
2020-09-19 19:00:00 22.1 17 Sudoeste 32 Sudoeste 0 -- -- 49
2020-09-19 18:00:00 22.7 24 Oeste 39 Sudoeste 0 -- -- 48
2020-09-19 17:00:00 24.7 21 Sudoeste 32 Sudoeste 0 -- -- 43
2020-09-19 16:00:00 21.6 12 Oeste 28 Sudoeste 0 -- -- 53
2020-09-19 15:00:00 22.1 18 Oeste 40 Sudoeste 0 -- -- 50
2020-09-19 14:00:00 22.5 21 Sudoeste 40 Sudoeste 0 -- -- 48
2020-09-19 13:00:00 22 19 Sudoeste 42 Sudoeste 0 -- -- 51
2020-09-19 12:00:00 22.3 19 Sur 33 Sur 0 -- -- 50
2020-09-19 11:00:00 21.5 15 Sur 40 Sudoeste 0 -- -- 55
2020-09-19 10:00:00 20.8 5 Oeste 19 Sudoeste 0 -- -- 61
2020-09-19 09:00:00 18.2 11 Sudeste 17 Sudeste 0 -- -- 76
2020-09-19 08:00:00 15.1 2 Nordeste 14 Este 0 -- -- 88
2020-09-19 07:00:00 14.9 5 Sudeste 13 Este 0 -- -- 87
2020-09-19 06:00:00 15.2 5 Norte 9 Sur 0 -- -- 85
2020-09-19 05:00:00 16.3 4 Sudoeste 18 Sur 0 -- -- 83
2020-09-19 04:00:00 18.1 8 Sur 21 Sur 0 -- -- 67
2020-09-19 03:00:00 14.6 5 Oeste 10 Oeste 0 -- -- 89
2020-09-19 02:00:00 15.7 6 Sudeste 12 Este 0 -- -- 81
2020-09-19 01:00:00 16.1 4 Sudeste 14 Este 0 -- -- 81
2020-09-19 00:00:00 16.6 8 Sur 13 Sur 0 -- -- 76
2020-09-18 23:00:00 16.1 2 Noroeste 21 Sudeste 0.2 -- -- 91
2020-09-18 22:00:00 17.5 8 Sur 28 Sudoeste 1.6 -- -- 87
2020-09-18 21:00:00 17.4 3 Oeste 5 Oeste 0 -- -- 91
2020-09-18 20:00:00 17.8 5 Noroeste 19 Noroeste 0 -- -- 89
2020-09-18 19:00:00 21 8 Sudeste 14 Sur 0 -- -- 67
2020-09-18 18:00:00 19.7 5 Sudeste 9 Sudeste 0 -- -- 81
2020-09-18 17:00:00 15.4 5 Este 45 Sudoeste 13.2 -- -- 93
2020-09-18 16:00:00 23 20 Este 35 Este 0 -- -- 62
2020-09-18 15:00:00 23.6 24 Este 37 Este 0 -- -- 55
2020-09-18 14:00:00 23.5 21 Este 39 Este 0 -- -- 55
2020-09-18 13:00:00 22.3 19 Sudeste 32 Sudeste 0 -- -- 60
2020-09-18 12:00:00 21.2 14 Sudeste 26 Este 0 -- -- 69
2020-09-18 11:00:00 19.6 12 Sudeste 26 Este 0.2 -- -- 75
2020-09-18 10:00:00 18.2 8 Sudeste 14 Sudeste 0.2 -- -- 83
2020-09-18 09:00:00 18.7 3 Norte 9 Sur 0 -- -- 77
2020-09-18 08:00:00 18.8 4 Sudoeste 8 Sur 0 -- -- 79
2020-09-18 07:00:00 19.3 5 Este 20 Este 0 -- -- 78
2020-09-18 06:00:00 19.4 4 Sudeste 16 Este 0 -- -- 76
2020-09-18 05:00:00 19.9 2 Este 12 Este 0 -- -- 69
2020-09-18 04:00:00 20.2 3 Sudoeste 10 Sudeste 0 -- -- 65
2020-09-18 03:00:00 20.7 3 Sudeste 12 Este 0 -- -- 65
2020-09-18 02:00:00 20.1 3 Norte 9 Sudeste 0 -- -- 73
2020-09-18 01:00:00 23.4 9 Sudeste 15 Sudeste 0 -- -- 52
2020-09-18 00:00:00 22.1 4 Sudeste 13 Sur 0 -- -- 55
2020-09-17 23:00:00 22.4 4 Sur 14 Sur 0 -- -- 58
2020-09-17 22:00:00 23.7 5 Sudeste 15 Este 0 -- -- 49
2020-09-17 21:00:00 25.5 9 Este 18 Este 0 -- -- 40
2020-09-17 20:00:00 27 14 Este 31 Este 0 -- -- 39
2020-09-17 19:00:00 27.4 21 Este 36 Este 0 -- -- 38
2020-09-17 18:00:00 28.3 23 Este 37 Nordeste 0 -- -- 33
2020-09-17 17:00:00 28.5 20 Este 33 Este 0 -- -- 32
2020-09-17 16:00:00 28.2 17 Este 31 Este 0 -- -- 38
2020-09-17 15:00:00 26.9 23 Este 32 Este 0 -- -- 46
2020-09-17 14:00:00 27.2 19 Este 31 Este 0 -- -- 45
2020-09-17 13:00:00 24.5 7 Sudeste 17 Sudeste 0 -- -- 57
2020-09-17 12:00:00 22 13 Sudeste 19 Nordeste 0 -- -- 74
2020-09-17 11:00:00 22 5 Sudeste 10 Sudeste 0 -- -- 75
2020-09-17 10:00:00 20.4 0 Calma 6 Norte 0 -- -- 82
2020-09-17 09:00:00 19.7 4 Sudeste 8 Sur 0 -- -- 85
2020-09-17 08:00:00 19.5 5 Sudeste 12 Sudeste 0 -- -- 85
2020-09-17 07:00:00 19.5 4 Sur 10 Sur 0 -- -- 84
2020-09-17 06:00:00 19.9 0 Calma 7 Sudeste 0 -- -- 80
2020-09-17 05:00:00 20.5 4 Sudeste 12 Sur 0 -- -- 78
2020-09-17 04:00:00 21.1 7 Sur 13 Sur 0 -- -- 74
2020-09-17 03:00:00 21.9 2 Nordeste 9 Este 0 -- -- 66
2020-09-17 02:00:00 22.5 4 Oeste 9 Sudeste 0 -- -- 58
2020-09-17 01:00:00 23.9 8 Sudeste 11 Sur 0 -- -- 51
2020-09-17 00:00:00 24 3 Este 8 Sudeste 0 -- -- 44
2020-09-16 23:00:00 24.2 3 Sudeste 11 Sudeste 0 -- -- 43
2020-09-16 22:00:00 23.7 10 Sudeste 13 Sudeste 0 -- -- 44
2020-09-16 21:00:00 26.4 5 Sudeste 9 Sudeste 0 -- -- 40
2020-09-16 20:00:00 27.8 6 Este 12 Este 0 -- -- 37
2020-09-16 19:00:00 29.6 7 Este 20 Este 0 -- -- 32
2020-09-16 18:00:00 31 12 Este 24 Norte 0 -- -- 28
2020-09-16 17:00:00 30.7 10 Este 21 Este 0 -- -- 30
2020-09-16 16:00:00 30.1 12 Este 21 Sudeste 0 -- -- 33
2020-09-16 15:00:00 31.1 9 Nordeste 19 Nordeste 0 -- -- 33
2020-09-16 14:00:00 30.6 8 Norte 16 Nordeste 0 -- -- 37
2020-09-16 13:00:00 29.5 8 Nordeste 17 Norte 0 -- -- 38
2020-09-16 12:00:00 27.9 6 Norte 12 Norte 0 -- -- 42
2020-09-16 11:00:00 26.7 5 Nordeste 9 Norte 0 -- -- 43
2020-09-16 10:00:00 24.5 3 Norte 6 Norte 0 -- -- 50
2020-09-16 09:00:00 20.1 4 Sudeste 10 Sudeste 0 -- -- 64
2020-09-16 08:00:00 17.5 6 Este 12 Sudeste 0 -- -- 71
2020-09-16 07:00:00 17.3 5 Sudeste 12 Sudeste 0 -- -- 71
2020-09-16 06:00:00 17.1 7 Sudeste 11 Sudeste 0 -- -- 73
2020-09-16 05:00:00 17.1 8 Sudeste 12 Sudeste 0 -- -- 70
2020-09-16 04:00:00 18.6 6 Sur 13 Sudeste 0 -- -- 64
2020-09-16 03:00:00 17.5 3 Sur 13 Sudeste 0 -- -- 66
2020-09-16 02:00:00 18.4 6 Este 14 Sudeste 0 -- -- 63
2020-09-16 01:00:00 18.7 9 Sudeste 13 Sudeste 0 -- -- 63
2020-09-16 00:00:00 21.3 4 Este 8 Sudeste 0 -- -- 55
2020-09-15 23:00:00 23.7 6 Sur 12 Sur 0 -- -- 48
2020-09-15 22:00:00 22.8 5 Sur 11 Sur 0 -- -- 52
2020-09-15 21:00:00 23.6 3 Sur 21 Sudeste 0 -- -- 53
2020-09-15 20:00:00 25.7 14 Sudeste 24 Este 0 -- -- 45
2020-09-15 19:00:00 29.4 7 Este 13 Sudeste 0 -- -- 34
2020-09-15 18:00:00 28.4 7 Sudeste 28 Sudeste 0 -- -- 38
2020-09-15 17:00:00 29.5 13 Este 24 Sudeste 0 -- -- 34
2020-09-15 16:00:00 30.8 12 Este 24 Este 0 -- -- 33
2020-09-15 15:00:00 30.2 12 Sudeste 22 Este 0 -- -- 34
2020-09-15 14:00:00 29.2 9 Este 20 Este 0 -- -- 35
2020-09-15 13:00:00 28.4 6 Este 19 Sudeste 0 -- -- 37
2020-09-15 12:00:00 26.7 8 Sudeste 18 Sudeste 0 -- -- 41
2020-09-15 11:00:00 25 8 Sudeste 14 Sudeste 0 -- -- 46
2020-09-15 10:00:00 24 9 Sudeste 17 Sudeste 0 -- -- 51
2020-09-15 09:00:00 19.6 0 Calma 10 Sudeste 0 -- -- 71
2020-09-15 08:00:00 16.9 5 Sudeste 13 Sudoeste 0 -- -- 79
2020-09-15 07:00:00 17.3 8 Sur 18 Sudoeste 0 -- -- 80
2020-09-15 06:00:00 18.8 14 Sudoeste 21 Sudoeste 0 -- -- 75
2020-09-15 05:00:00 18 6 Noroeste 16 Noroeste 0.2 -- -- 79
2020-09-15 04:00:00 20.4 7 Norte 41 Sudoeste 0 -- -- 64
2020-09-15 03:00:00 22.2 31 Sudoeste 49 Sudoeste 0 -- -- 53
2020-09-15 02:00:00 21.2 4 Noroeste 12 Sur 0 -- -- 61
2020-09-15 01:00:00 21.6 5 Sur 11 Sur 0 -- -- 58
2020-09-15 00:00:00 22.1 3 Sur 11 Sudoeste 0 -- -- 55
2020-09-14 23:00:00 23 10 Sudeste 24 Sudeste 0 -- -- 51
2020-09-14 22:00:00 24.6 15 Este 28 Sudeste 0 -- -- 47
2020-09-14 21:00:00 25.9 14 Este 32 Este 0 -- -- 42
2020-09-14 20:00:00 27.3 15 Este 36 Este 0 -- -- 36
2020-09-14 19:00:00 29.5 20 Este 37 Este 0 -- -- 35
2020-09-14 18:00:00 29.8 18 Este 28 Este 0 -- -- 30
2020-09-14 17:00:00 31 15 Este 35 Este 0 -- -- 27
2020-09-14 16:00:00 31.4 13 Este 33 Este 0 -- -- 26
2020-09-14 15:00:00 30.4 18 Este 30 Este 0 -- -- 26
2020-09-14 14:00:00 29 14 Este 26 Este 0 -- -- 30
2020-09-14 13:00:00 28.2 12 Este 21 Este 0 -- -- 34
2020-09-14 12:00:00 28.4 9 Nordeste 16 Norte 0 -- -- 32
2020-09-14 11:00:00 27.2 2 Nordeste 8 Este 0 -- -- 38
2020-09-14 10:00:00 22.5 4 Este 7 Sudeste 0 -- -- 52
2020-09-14 09:00:00 17.5 0 Calma 12 Sudeste 0 -- -- 66
2020-09-14 08:00:00 13.9 9 Sudeste 12 Sudeste 0 -- -- 76
2020-09-14 07:00:00 14.4 10 Sudeste 13 Sudeste 0 -- -- 73
2020-09-14 06:00:00 16.8 4 Noroeste 10 Sudeste 0 -- -- 64
2020-09-14 05:00:00 17.5 3 Sudeste 9 Sudoeste 0 -- -- 59
2020-09-14 04:00:00 16.7 2 Sur 9 Sudeste 0 -- -- 60
2020-09-14 03:00:00 19.7 3 Sur 9 Este 0 -- -- 51
2020-09-14 02:00:00 19.1 8 Sudeste 12 Sudeste 0 -- -- 50
2020-09-14 01:00:00 21.3 5 Sur 10 Sur 0 -- -- 47
2020-09-14 00:00:00 22 5 Sur 13 Sudeste 0 -- -- 45
2020-09-13 23:00:00 24.5 13 Sudeste 28 Este 0 -- -- 40
2020-09-13 22:00:00 25.7 18 Este 28 Este 0 -- -- 38
2020-09-13 21:00:00 27.4 21 Este 30 Este 0 -- -- 33
2020-09-13 20:00:00 28.6 8 Este 22 Este 0 -- -- 20
2020-09-13 19:00:00 31.1 13 Este 27 Este 0 -- -- 19
2020-09-13 18:00:00 32.2 11 Este 27 Nordeste 0 -- -- 20
2020-09-13 17:00:00 32.1 12 Este 27 Este 0 -- -- 22
2020-09-13 16:00:00 31.4 10 Este 29 Este 0 -- -- 24
2020-09-13 15:00:00 30.7 14 Este 27 Este 0 -- -- 23
2020-09-13 14:00:00 30 11 Sudeste 21 Este 0 -- -- 26
2020-09-13 13:00:00 28.9 9 Sudeste 19 Este 0 -- -- 31
2020-09-13 12:00:00 28.4 7 Norte 14 Norte 0 -- -- 35
2020-09-13 11:00:00 26.3 3 Nordeste 8 Nordeste 0 -- -- 39
2020-09-13 10:00:00 24.1 3 Nordeste 6 Nordeste 0 -- -- 48
2020-09-13 09:00:00 19 3 Sudeste 12 Sudeste 0 -- -- 62
2020-09-13 08:00:00 14.3 5 Sudeste 13 Sudeste 0 -- -- 75
2020-09-13 07:00:00 14.5 8 Sudeste 14 Sudeste 0 -- -- 68
2020-09-13 06:00:00 15.1 0 Calma 14 Sudeste 0 -- -- 64
2020-09-13 05:00:00 16.5 5 Sudeste 14 Sudeste 0 -- -- 55
2020-09-13 04:00:00 17.2 12 Sudeste 15 Sudeste 0 -- -- 49
2020-09-13 03:00:00 16.7 8 Sudeste 13 Sudeste 0 -- -- 49
2020-09-13 02:00:00 17.2 8 Sudeste 15 Sudeste 0 -- -- 46
2020-09-13 01:00:00 17.7 12 Sudeste 15 Sudeste 0 -- -- 45
2020-09-13 00:00:00 17.8 13 Sudeste 15 Sudeste 0 -- -- 48
2020-09-12 23:00:00 18.8 10 Sudeste 14 Sudeste 0 -- -- 49
2020-09-12 22:00:00 19.5 8 Sudeste 13 Sudeste 0 -- -- 48
2020-09-12 21:00:00 22 8 Sudeste 11 Sudeste 0 -- -- 42
2020-09-12 20:00:00 25.6 2 Noroeste 10 Norte 0 -- -- 35
2020-09-12 19:00:00 29.9 6 Norte 16 Norte 0 -- -- 30
2020-09-12 18:00:00 30.2 11 Norte 18 Norte 0 -- -- 31
2020-09-12 17:00:00 30.4 8 Norte 19 Noroeste 0 -- -- 33
2020-09-12 16:00:00 30.2 10 Norte 24 Norte 0 -- -- 35
2020-09-12 15:00:00 29.4 11 Nordeste 22 Norte 0 -- -- 36
2020-09-12 14:00:00 29 3 Norte 14 Este 0 -- -- 35
2020-09-12 13:00:00 27 6 Sur 14 Oeste 0 -- -- 42
2020-09-12 12:00:00 25.6 8 Oeste 18 Oeste 0 -- -- 47
2020-09-12 11:00:00 23.5 12 Oeste 24 Noroeste 0 -- -- 55
2020-09-12 10:00:00 21.6 7 Noroeste 15 Noroeste 0 -- -- 62
2020-09-12 09:00:00 19.1 7 Oeste 15 Oeste 0 -- -- 72
2020-09-12 08:00:00 16.8 6 Oeste 15 Norte 0 -- -- 79
2020-09-12 07:00:00 17.1 3 Nordeste 18 Noroeste 0 -- -- 79
2020-09-12 06:00:00 18.2 11 Noroeste 21 Noroeste 0 -- -- 76
2020-09-12 05:00:00 18.5 3 Norte 17 Nordeste 0 -- -- 75
2020-09-12 04:00:00 19.1 3 Sudeste 17 Noroeste 0 -- -- 73
2020-09-12 03:00:00 17.5 8 Sudeste 13 Sudeste 0 -- -- 66
2020-09-12 02:00:00 17.5 4 Sudeste 15 Sudeste 0 -- -- 62
2020-09-12 01:00:00 18.7 5 Sudeste 11 Sudeste 0 -- -- 52
2020-09-12 00:00:00 17.1 4 Sudeste 14 Sudeste 0 -- -- 50
2020-09-11 23:00:00 17.4 12 Sudeste 14 Sudeste 0 -- -- 50
2020-09-11 22:00:00 18.4 7 Sudeste 14 Sudeste 0 -- -- 46
2020-09-11 21:00:00 21.3 8 Sudeste 11 Sudeste 0 -- -- 37
2020-09-11 20:00:00 23.8 8 Noroeste 16 Noroeste 0 -- -- 32
2020-09-11 19:00:00 29.4 9 Noroeste 19 Noroeste 0 -- -- 23
2020-09-11 18:00:00 29.9 11 Noroeste 20 Noroeste 0 -- -- 24
2020-09-11 17:00:00 30.2 9 Norte 31 Oeste 0 -- -- 28
2020-09-11 16:00:00 29.9 8 Norte 23 Noroeste 0 -- -- 31
2020-09-11 15:00:00 28.8 13 Noroeste 22 Oeste 0 -- -- 32
2020-09-11 14:00:00 26.7 10 Sudoeste 25 Oeste 0 -- -- 39
2020-09-11 13:00:00 25.2 17 Oeste 26 Oeste 0 -- -- 45
2020-09-11 12:00:00 23.9 17 Noroeste 28 Oeste 0 -- -- 50
2020-09-11 11:00:00 22.3 16 Oeste 28 Noroeste 0 -- -- 53
2020-09-11 10:00:00 20.4 15 Oeste 25 Oeste 0 -- -- 59
2020-09-11 09:00:00 18.3 13 Oeste 23 Oeste 0 -- -- 63
2020-09-11 08:00:00 16.6 8 Oeste 30 Noroeste 0 -- -- 69
2020-09-11 07:00:00 17.2 10 Oeste 29 Noroeste 0 -- -- 67
2020-09-11 06:00:00 17.8 20 Noroeste 35 Oeste 0 -- -- 63
2020-09-11 05:00:00 18.2 23 Oeste 40 Oeste 0 -- -- 62
2020-09-11 04:00:00 18.4 25 Oeste 40 Oeste 0 -- -- 61
2020-09-11 03:00:00 18.1 8 Noroeste 35 Noroeste 0 -- -- 60
2020-09-11 02:00:00 19 23 Oeste 46 Noroeste 0 -- -- 57
2020-09-11 01:00:00 19.4 23 Oeste 41 Noroeste 0 -- -- 54
2020-09-11 00:00:00 20.4 14 Noroeste 45 Oeste 0 -- -- 51
2020-09-10 23:00:00 21.9 30 Oeste 52 Oeste 0 -- -- 44
2020-09-10 22:00:00 22.8 35 Oeste 50 Oeste 0 -- -- 39
2020-09-10 21:00:00 24.2 29 Oeste 48 Oeste 0 -- -- 34
2020-09-10 20:00:00 25.4 22 Oeste 37 Oeste 0 -- -- 33
2020-09-10 19:00:00 28.1 23 Noroeste 33 Oeste 0 -- -- 29
2020-09-10 18:00:00 29.5 18 Noroeste 30 Noroeste 0 -- -- 28
2020-09-10 17:00:00 29.8 15 Noroeste 35 Noroeste 0 -- -- 28
2020-09-10 16:00:00 29.3 17 Noroeste 30 Noroeste 0 -- -- 30
2020-09-10 15:00:00 28.4 19 Noroeste 31 Noroeste 0 -- -- 31
2020-09-10 14:00:00 27.5 17 Noroeste 31 Noroeste 0 -- -- 34
2020-09-10 13:00:00 26.4 16 Noroeste 30 Noroeste 0 -- -- 36
2020-09-10 12:00:00 24.6 21 Noroeste 36 Oeste 0 -- -- 41
2020-09-10 11:00:00 22.1 22 Oeste 39 Oeste 0 -- -- 48
2020-09-10 10:00:00 20.7 12 Oeste 22 Oeste 0 -- -- 51
2020-09-10 09:00:00 18.3 4 Sudeste 16 Oeste 0 -- -- 57
2020-09-10 08:00:00 16.6 5 Sudeste 21 Este 0 -- -- 64
2020-09-10 07:00:00 16.2 4 Nordeste 15 Sudoeste 0 -- -- 64
2020-09-10 06:00:00 16.5 5 Sudoeste 23 Sudoeste 0 -- -- 77
2020-09-10 05:00:00 15.1 13 Sudoeste 23 Sudoeste 0 -- -- 87
2020-09-10 04:00:00 14.8 3 Sudoeste 10 Sudoeste 0 -- -- 85
2020-09-10 03:00:00 14.9 4 Sudoeste 11 Sur 0 -- -- 87
2020-09-10 02:00:00 16 6 Sudeste 10 Sur 0 -- -- 83
2020-09-10 01:00:00 17.4 6 Sur 14 Sudeste 0 -- -- 79
2020-09-10 00:00:00 17.8 6 Sur 15 Sur 0 -- -- 77
2020-09-09 23:00:00 17.6 6 Sudeste 26 Este 0.8 -- -- 78
2020-09-09 22:00:00 21.6 15 Este 36 Este 0 -- -- 58
2020-09-09 21:00:00 23.8 5 Este 10 Este 0 -- -- 35
2020-09-09 20:00:00 25.2 0 Calma 18 Oeste 0 -- -- 30
2020-09-09 19:00:00 28.4 7 Norte 15 Oeste 0 -- -- 26
2020-09-09 18:00:00 27.9 5 Norte 19 Oeste 0 -- -- 28
2020-09-09 17:00:00 27 15 Oeste 23 Oeste 0 -- -- 31
2020-09-09 16:00:00 27.8 13 Norte 24 Oeste 0 -- -- 30
2020-09-09 15:00:00 27.3 6 Noroeste 19 Oeste 0 -- -- 35
2020-09-09 14:00:00 25.8 7 Norte 19 Sudeste 0 -- -- 41
2020-09-09 13:00:00 23 5 Este 13 Sur 0 -- -- 47
2020-09-09 12:00:00 21.7 3 Nordeste 6 Nordeste 0 -- -- 51
2020-09-09 11:00:00 20.4 2 Sudeste 14 Sudeste 0 -- -- 56
2020-09-09 10:00:00 18.9 2 Norte 8 Oeste 0 -- -- 58
2020-09-09 09:00:00 15.4 4 Sur 10 Sudeste 0 -- -- 68
2020-09-09 08:00:00 13.6 9 Sudeste 12 Sudeste 0 -- -- 72
2020-09-09 07:00:00 13.1 10 Sudeste 13 Sudeste 0 -- -- 73
2020-09-09 06:00:00 13.5 0 Calma 12 Sudeste 0 -- -- 69
2020-09-09 05:00:00 14.4 3 Sur 7 Sur 0 -- -- 67
2020-09-09 04:00:00 17.4 4 Sudoeste 14 Sur 0 -- -- 58
2020-09-09 03:00:00 18.5 5 Sudeste 12 Sudeste 0 -- -- 55
2020-09-09 02:00:00 18.4 6 Sudeste 12 Este 0 -- -- 54
2020-09-09 01:00:00 18.2 7 Este 13 Este 0 -- -- 50
2020-09-09 00:00:00 17.6 3 Oeste 6 Este 0 -- -- 44
2020-09-08 23:00:00 18.2 3 Sudeste 5 Sudeste 0 -- -- 41
2020-09-08 22:00:00 20.3 4 Este 10 Sudeste 0 -- -- 36
2020-09-08 21:00:00 21.9 7 Este 14 Este 0 -- -- 33
2020-09-08 20:00:00 23.2 12 Este 19 Este 0 -- -- 31
2020-09-08 19:00:00 24.3 14 Este 25 Este 0 -- -- 28
2020-09-08 18:00:00 25.3 12 Este 30 Este 0 -- -- 27
2020-09-08 17:00:00 25.7 7 Este 23 Nordeste 0 -- -- 27
2020-09-08 16:00:00 26.1 8 Este 19 Este 0 -- -- 26
2020-09-08 15:00:00 25.3 10 Nordeste 21 Norte 0 -- -- 30
2020-09-08 14:00:00 24.3 6 Norte 17 Este 0 -- -- 34
2020-09-08 13:00:00 22.7 10 Nordeste 18 Norte 0 -- -- 37
2020-09-08 12:00:00 20.8 8 Norte 20 Noroeste 0 -- -- 42
2020-09-08 11:00:00 19 17 Oeste 26 Oeste 0 -- -- 49
2020-09-08 10:00:00 16.6 17 Oeste 34 Oeste 0 -- -- 58
2020-09-08 09:00:00 14.3 21 Oeste 34 Oeste 0 -- -- 66
2020-09-08 08:00:00 12.5 22 Oeste 35 Oeste 0 -- -- 73
2020-09-08 07:00:00 12.5 20 Oeste 35 Oeste 0 -- -- 74
2020-09-08 06:00:00 12.6 20 Oeste 33 Oeste 0 -- -- 72
2020-09-08 05:00:00 13 16 Oeste 34 Oeste 0 -- -- 71
2020-09-08 04:00:00 13.4 22 Oeste 39 Oeste 0 -- -- 69
2020-09-08 03:00:00 13.4 23 Oeste 48 Oeste 0 -- -- 67
2020-09-08 02:00:00 14 35 Oeste 54 Oeste 0 -- -- 65
2020-09-08 01:00:00 14.3 34 Oeste 50 Oeste 0 -- -- 63
2020-09-08 00:00:00 14.9 36 Oeste 53 Oeste 0 -- -- 59
2020-09-07 23:00:00 15.5 37 Oeste 53 Oeste 0 -- -- 56
2020-09-07 22:00:00 16.1 31 Oeste 50 Oeste 0 -- -- 53
2020-09-07 21:00:00 17 26 Noroeste 51 Oeste 0 -- -- 47
2020-09-07 20:00:00 18.6 35 Oeste 54 Oeste 0 -- -- 41
2020-09-07 19:00:00 20.8 35 Oeste 49 Oeste 0 -- -- 36
2020-09-07 18:00:00 22.4 30 Noroeste 49 Noroeste 0 -- -- 32
2020-09-07 17:00:00 22.6 29 Oeste 50 Oeste 0 -- -- 31
2020-09-07 16:00:00 23.6 27 Noroeste 46 Noroeste 0 -- -- 30
2020-09-07 15:00:00 22.8 25 Oeste 44 Noroeste 0 -- -- 34
2020-09-07 14:00:00 22.3 28 Noroeste 46 Oeste 0 -- -- 35
2020-09-07 13:00:00 20.5 31 Noroeste 46 Oeste 0 -- -- 40
2020-09-07 12:00:00 18.8 35 Oeste 53 Noroeste 0 -- -- 43
2020-09-07 11:00:00 17.7 37 Noroeste 57 Oeste 0 -- -- 48
2020-09-07 10:00:00 16 37 Noroeste 61 Noroeste 0 -- -- 55
2020-09-07 09:00:00 14.5 28 Oeste 64 Oeste 0 -- -- 63
2020-09-07 08:00:00 13.7 45 Oeste 82 Oeste 0 -- -- 65
2020-09-07 07:00:00 13.4 45 Oeste 64 Noroeste 0 -- -- 69
2020-09-07 06:00:00 13.7 49 Noroeste 71 Oeste 0 -- -- 67
2020-09-07 05:00:00 13.8 37 Oeste 69 Oeste 0 -- -- 63
2020-09-07 04:00:00 14 46 Oeste 62 Oeste 0 -- -- 62
2020-09-07 03:00:00 14 40 Oeste 65 Oeste 0 -- -- 61
2020-09-07 02:00:00 14.7 34 Oeste 55 Oeste 0 -- -- 63
2020-09-07 01:00:00 15.2 35 Oeste 56 Oeste 0 -- -- 60
2020-09-07 00:00:00 15.5 33 Oeste 61 Oeste 0 -- -- 60
2020-09-06 23:00:00 16 46 Oeste 73 Oeste 0 -- -- 59
2020-09-06 22:00:00 16.7 51 Oeste 69 Oeste 0 -- -- 58
2020-09-06 21:00:00 17.8 36 Oeste 54 Noroeste 0 -- -- 54
2020-09-06 20:00:00 19.6 28 Noroeste 51 Noroeste 0 -- -- 47
2020-09-06 19:00:00 21.9 22 Noroeste 44 Noroeste 0 -- -- 43
2020-09-06 18:00:00 23.4 27 Noroeste 48 Noroeste 0 -- -- 41
2020-09-06 17:00:00 23 25 Noroeste 52 Oeste 0 -- -- 45
2020-09-06 16:00:00 22.9 31 Noroeste 50 Noroeste 0 -- -- 47
2020-09-06 15:00:00 23.5 29 Noroeste 49 Noroeste 0 -- -- 46
2020-09-06 14:00:00 23.1 31 Noroeste 45 Oeste 0 -- -- 47
2020-09-06 13:00:00 21.7 27 Noroeste 45 Oeste 0 -- -- 52
2020-09-06 12:00:00 20.6 33 Oeste 44 Oeste 0 -- -- 55
2020-09-06 11:00:00 19.5 26 Oeste 42 Oeste 0 -- -- 59
2020-09-06 10:00:00 19.1 24 Noroeste 39 Oeste 0 -- -- 60
2020-09-06 09:00:00 16.6 18 Noroeste 34 Oeste 0 -- -- 70
2020-09-06 08:00:00 15.5 23 Oeste 41 Oeste 0 -- -- 75
2020-09-06 07:00:00 15.8 30 Oeste 45 Oeste 0 -- -- 74
2020-09-06 06:00:00 15.8 26 Oeste 41 Oeste 0 -- -- 74
2020-09-06 05:00:00 15.8 17 Noroeste 37 Oeste 0 -- -- 75
2020-09-06 04:00:00 16.3 22 Noroeste 44 Noroeste 0 -- -- 72
2020-09-06 03:00:00 16.8 30 Oeste 55 Oeste 0 -- -- 71
2020-09-06 02:00:00 17 38 Oeste 57 Oeste 0 -- -- 71
2020-09-06 01:00:00 17.6 39 Oeste 65 Oeste 0 -- -- 71
2020-09-06 00:00:00 18.2 43 Oeste 59 Oeste 0 -- -- 70
2020-09-05 23:00:00 18.9 35 Oeste 57 Noroeste 0 -- -- 67
2020-09-05 22:00:00 20.2 33 Oeste 52 Oeste 0 -- -- 62
2020-09-05 21:00:00 21.9 28 Noroeste 40 Oeste 0 -- -- 57
2020-09-05 20:00:00 24.8 23 Noroeste 31 Noroeste 0 -- -- 49
2020-09-05 19:00:00 28.6 21 Noroeste 30 Noroeste 0 -- -- 40
2020-09-05 18:00:00 30.2 16 Noroeste 27 Noroeste 0 -- -- 35
2020-09-05 17:00:00 31.3 12 Noroeste 22 Oeste 0 -- -- 31
2020-09-05 16:00:00 30.7 11 Noroeste 24 Noroeste 0 -- -- 32
2020-09-05 15:00:00 29.7 12 Noroeste 24 Noroeste 0 -- -- 36
2020-09-05 14:00:00 28.5 13 Noroeste 27 Noroeste 0 -- -- 39
2020-09-05 13:00:00 27.4 13 Noroeste 24 Norte 0 -- -- 41
2020-09-05 12:00:00 25 12 Norte 20 Norte 0 -- -- 50
2020-09-05 11:00:00 23.5 10 Norte 17 Norte 0 -- -- 54
2020-09-05 10:00:00 22 7 Norte 11 Norte 0 -- -- 59
2020-09-05 09:00:00 18.8 0 Calma 13 Sudeste 0 -- -- 74
2020-09-05 08:00:00 13.8 10 Sudeste 13 Sudeste 0 -- -- 90
2020-09-05 07:00:00 14 7 Sudeste 10 Sudeste 0 -- -- 88
2020-09-05 06:00:00 14.9 3 Sudeste 6 Sur 0 -- -- 86
2020-09-05 05:00:00 15.8 0 Calma 9 Sudeste 0 -- -- 84
2020-09-05 04:00:00 16.5 3 Sur 8 Sudeste 0 -- -- 80
2020-09-05 03:00:00 16.5 6 Sur 12 Sudeste 0 -- -- 77
2020-09-05 02:00:00 17.3 0 Calma 6 Sur 0 -- -- 75
2020-09-05 01:00:00 19.3 5 Sudeste 9 Sudeste 0 -- -- 66
2020-09-05 00:00:00 22.2 6 Sur 14 Sur 0 -- -- 58
2020-09-04 23:00:00 22.9 6 Sudeste 25 Este 0 -- -- 53
2020-09-04 22:00:00 24.7 16 Este 27 Este 0 -- -- 47
2020-09-04 21:00:00 25.4 10 Este 22 Este 0 -- -- 35
2020-09-04 20:00:00 28.7 8 Este 21 Este 0 -- -- 23
2020-09-04 19:00:00 30.3 10 Este 26 Este 0 -- -- 22
2020-09-04 18:00:00 30.5 15 Este 26 Sudeste 0 -- -- 24
2020-09-04 17:00:00 30.6 12 Este 25 Este 0 -- -- 25
2020-09-04 16:00:00 30.8 14 Este 28 Este 0 -- -- 26
2020-09-04 15:00:00 30 10 Este 24 Este 0 -- -- 31
2020-09-04 14:00:00 28.9 9 Nordeste 19 Este 0 -- -- 35
2020-09-04 13:00:00 27.4 9 Este 20 Este 0 -- -- 42
2020-09-04 12:00:00 25.7 6 Este 12 Nordeste 0 -- -- 50
2020-09-04 11:00:00 24.9 3 Nordeste 10 Nordeste 0 -- -- 51
2020-09-04 10:00:00 22.3 2 Norte 5 Este 0 -- -- 63
2020-09-04 09:00:00 18.6 0 Calma 10 Sudeste 0 -- -- 75
2020-09-04 08:00:00 14.3 5 Sudeste 9 Sudeste 0 -- -- 89
2020-09-04 07:00:00 13.5 5 Sur 12 Sudeste 0 -- -- 87
2020-09-04 06:00:00 14 10 Sudeste 12 Sudeste 0 -- -- 79
2020-09-04 05:00:00 15.2 6 Sudeste 12 Sudeste 0 -- -- 66
2020-09-04 04:00:00 14.9 8 Sur 14 Sudeste 0 -- -- 68
2020-09-04 03:00:00 15 10 Sudeste 14 Sudeste 0 -- -- 75
2020-09-04 02:00:00 16.1 7 Noroeste 9 Nordeste 0 -- -- 68
2020-09-04 01:00:00 17.3 6 Sur 13 Sudeste 0 -- -- 64
2020-09-04 00:00:00 19.9 6 Sur 15 Sudeste 0 -- -- 56
2020-09-03 23:00:00 18.2 5 Sudeste 9 Sudeste 0 -- -- 41
2020-09-03 22:00:00 19 6 Sudeste 12 Sudeste 0 -- -- 39
2020-09-03 21:00:00 22.1 6 Sudeste 9 Este 0 -- -- 32
2020-09-03 20:00:00 26.4 5 Este 15 Este 0 -- -- 26
2020-09-03 19:00:00 29 8 Nordeste 16 Este 0 -- -- 24
2020-09-03 18:00:00 29 10 Este 25 Este 0 -- -- 25
2020-09-03 17:00:00 29.1 8 Este 22 Este 0 -- -- 25
2020-09-03 16:00:00 28.7 11 Este 22 Nordeste 0 -- -- 27
2020-09-03 15:00:00 28.7 5 Sudoeste 20 Este 0 -- -- 27
2020-09-03 14:00:00 26.6 8 Este 21 Este 0 -- -- 30
2020-09-03 13:00:00 26.1 5 Nordeste 17 Norte 0 -- -- 32
2020-09-03 12:00:00 24.2 4 Sudeste 13 Noroeste 0 -- -- 35
2020-09-03 11:00:00 21.8 4 Este 10 Este 0 -- -- 41
2020-09-03 10:00:00 19.9 3 Este 6 Este 0 -- -- 45
2020-09-03 09:00:00 15.5 4 Sudeste 15 Sudeste 0 -- -- 59
2020-09-03 08:00:00 10.1 10 Sudeste 17 Sudeste 0 -- -- 75
2020-09-03 07:00:00 10.6 8 Sudeste 13 Sudeste 0 -- -- 72
2020-09-03 06:00:00 12.1 6 Sudeste 14 Oeste 0 -- -- 68
2020-09-03 05:00:00 15.7 6 Oeste 14 Sudoeste 0 -- -- 56
2020-09-03 04:00:00 15.1 9 Sur 17 Noroeste 0 -- -- 59
2020-09-03 03:00:00 16.3 9 Noroeste 25 Oeste 0 -- -- 55
2020-09-03 02:00:00 16.4 7 Sudoeste 21 Oeste 0 -- -- 53
2020-09-03 01:00:00 16.6 7 Sudeste 14 Sudeste 0 -- -- 52
2020-09-03 00:00:00 16.7 5 Sudoeste 13 Oeste 0 -- -- 48
2020-09-02 23:00:00 18.5 8 Oeste 20 Oeste 0 -- -- 42
2020-09-02 22:00:00 18.7 11 Oeste 18 Noroeste 0 -- -- 40
2020-09-02 21:00:00 19 10 Oeste 20 Noroeste 0 -- -- 36
2020-09-02 20:00:00 22.4 13 Noroeste 24 Noroeste 0 -- -- 26
2020-09-02 19:00:00 25.6 17 Noroeste 28 Noroeste 0 -- -- 25
2020-09-02 18:00:00 26 19 Oeste 35 Noroeste 0 -- -- 26
2020-09-02 17:00:00 26.6 16 Noroeste 37 Noroeste 0 -- -- 26
2020-09-02 16:00:00 26.5 22 Noroeste 48 Noroeste 0 -- -- 29
2020-09-02 15:00:00 25.1 21 Noroeste 37 Noroeste 0 -- -- 31
2020-09-02 14:00:00 24.4 21 Noroeste 41 Oeste 0 -- -- 34
2020-09-02 13:00:00 22.9 24 Noroeste 41 Oeste 0 -- -- 39
2020-09-02 12:00:00 21.6 25 Noroeste 41 Noroeste 0 -- -- 43
2020-09-02 11:00:00 20.2 26 Noroeste 41 Oeste 0 -- -- 46
2020-09-02 10:00:00 18.4 26 Oeste 49 Oeste 0 -- -- 51
2020-09-02 09:00:00 16.4 32 Oeste 57 Oeste 0 -- -- 57
2020-09-02 08:00:00 14.9 6 Noroeste 35 Oeste 0 -- -- 64
2020-09-02 07:00:00 14.8 21 Oeste 59 Oeste 0 -- -- 65
2020-09-02 06:00:00 15.4 40 Oeste 59 Oeste 0 -- -- 64
2020-09-02 05:00:00 15.6 41 Oeste 61 Oeste 0 -- -- 64
2020-09-02 04:00:00 15.7 37 Oeste 54 Noroeste 0 -- -- 65
2020-09-02 03:00:00 15.8 28 Oeste 47 Oeste 0 -- -- 65
2020-09-02 02:00:00 16.3 22 Oeste 45 Noroeste 0 -- -- 63
2020-09-02 01:00:00 17.1 11 Oeste 42 Oeste 0 -- -- 59
2020-09-02 00:00:00 18.2 26 Oeste 42 Oeste 0 -- -- 49
2020-09-01 23:00:00 19.2 31 Oeste 41 Oeste 0 -- -- 46
2020-09-01 22:00:00 21 19 Noroeste 30 Oeste 0 -- -- 37
2020-09-01 21:00:00 21 10 Oeste 14 Noroeste 0 -- -- 32
2020-09-01 20:00:00 22.6 10 Noroeste 21 Noroeste 0 -- -- 27
2020-09-01 19:00:00 24.2 15 Noroeste 24 Norte 0 -- -- 22
2020-09-01 18:00:00 25.7 13 Noroeste 23 Noroeste 0 -- -- 22
2020-09-01 17:00:00 25.5 11 Oeste 21 Norte 0 -- -- 24
2020-09-01 16:00:00 24.1 8 Norte 23 Noroeste 0 -- -- 29
2020-09-01 15:00:00 23.8 13 Norte 23 Norte 0 -- -- 30
2020-09-01 14:00:00 24.3 8 Norte 17 Norte 0 -- -- 29
2020-09-01 13:00:00 22.6 10 Oeste 17 Oeste 0 -- -- 34
2020-09-01 12:00:00 22.1 5 Norte 24 Noroeste 0 -- -- 30
2020-09-01 11:00:00 20.8 13 Oeste 20 Oeste 0 -- -- 37
2020-09-01 10:00:00 19.8 10 Oeste 15 Oeste 0 -- -- 38
2020-09-01 09:00:00 17.5 5 Oeste 16 Norte 0 -- -- 43
2020-09-01 08:00:00 16.4 9 Sudoeste 18 Sudoeste 0 -- -- 44
2020-09-01 07:00:00 15.3 5 Sudeste 14 Sudeste 0 -- -- 48
2020-09-01 06:00:00 14.6 3 Sur 12 Sur 0 -- -- 50
2020-09-01 05:00:00 13.7 6 Sudeste 12 Sudeste 0 -- -- 50
2020-09-01 04:00:00 13.7 3 Sur 10 Sudoeste 0 -- -- 45
2020-09-01 03:00:00 14.5 5 Sudeste 13 Sudeste 0 -- -- 38
2020-09-01 02:00:00 12.7 9 Sudeste 14 Sudeste 0 -- -- 41
2020-09-01 01:00:00 14.5 9 Sudeste 12 Sudeste 0 -- -- 36
2020-09-01 00:00:00 15.4 9 Sudeste 15 Sudeste 0 -- -- 34
2020-08-31 23:00:00 16.7 4 Sur 13 Sudeste 0 -- -- 29
2020-08-31 22:00:00 17 10 Sudeste 14 Sudeste 0 -- -- 26
2020-08-31 21:00:00 18.1 6 Sudeste 10 Noroeste 0 -- -- 26
2020-08-31 20:00:00 21.3 7 Noroeste 23 Noroeste 0 -- -- 27
2020-08-31 19:00:00 24.9 13 Norte 20 Norte 0 -- -- 26
2020-08-31 18:00:00 26.6 13 Noroeste 23 Noroeste 0 -- -- 20
2020-08-31 17:00:00 25.9 8 Oeste 23 Oeste 0 -- -- 21
2020-08-31 16:00:00 25 10 Noroeste 23 Oeste 0 -- -- 20
2020-08-31 15:00:00 23.9 8 Oeste 21 Sudoeste 0 -- -- 24
2020-08-31 14:00:00 22.9 10 Noroeste 26 Oeste 0 -- -- 29
2020-08-31 13:00:00 20.7 14 Oeste 31 Oeste 0 -- -- 36
2020-08-31 12:00:00 19.4 19 Oeste 39 Noroeste 0 -- -- 41
2020-08-31 11:00:00 17.5 18 Oeste 35 Oeste 0 -- -- 47
2020-08-31 10:00:00 15.6 22 Oeste 32 Sudoeste 0 -- -- 55
2020-08-31 09:00:00 13.6 15 Oeste 30 Oeste 0 -- -- 62
2020-08-31 08:00:00 11.5 12 Oeste 24 Sudoeste 0 -- -- 71
2020-08-31 07:00:00 11.4 11 Oeste 33 Oeste 0 -- -- 73
2020-08-31 06:00:00 11.5 23 Oeste 42 Oeste 0 -- -- 73
2020-08-31 05:00:00 11.8 20 Oeste 34 Sudoeste 0 -- -- 71
2020-08-31 04:00:00 12 21 Oeste 39 Oeste 0 -- -- 70
2020-08-31 03:00:00 12.5 26 Oeste 48 Oeste 0 -- -- 68
2020-08-31 02:00:00 13.1 32 Oeste 52 Oeste 0 -- -- 64
2020-08-31 01:00:00 13.4 36 Oeste 57 Oeste 0 -- -- 64
2020-08-31 00:00:00 13.8 37 Oeste 56 Oeste 0 -- -- 60
2020-08-30 23:00:00 14.2 37 Oeste 52 Oeste 0 -- -- 59
2020-08-30 22:00:00 14.8 27 Oeste 56 Oeste 0 -- -- 55
2020-08-30 21:00:00 16.2 30 Noroeste 50 Oeste 0 -- -- 51
2020-08-30 20:00:00 17.4 37 Oeste 62 Oeste 0 -- -- 46
2020-08-30 19:00:00 19.2 35 Noroeste 52 Oeste 0 -- -- 42
2020-08-30 18:00:00 20.3 31 Noroeste 54 Noroeste 0 -- -- 39
2020-08-30 17:00:00 20.6 33 Noroeste 52 Noroeste 0 -- -- 40
2020-08-30 16:00:00 20.8 35 Noroeste 51 Noroeste 0 -- -- 40
2020-08-30 15:00:00 20.4 35 Noroeste 54 Oeste 0 -- -- 41
2020-08-30 14:00:00 19.9 33 Noroeste 52 Noroeste 0 -- -- 40
2020-08-30 13:00:00 19.3 33 Oeste 60 Noroeste 0 -- -- 43
2020-08-30 12:00:00 17.8 35 Oeste 58 Noroeste 0 -- -- 48
2020-08-30 11:00:00 16.7 38 Noroeste 61 Noroeste 0 -- -- 50
2020-08-30 10:00:00 15.4 34 Noroeste 50 Noroeste 0 -- -- 53
2020-08-30 09:00:00 13.5 32 Oeste 44 Oeste 0 -- -- 60
2020-08-30 08:00:00 12 30 Oeste 45 Oeste 0 -- -- 66
2020-08-30 07:00:00 11.9 36 Oeste 53 Noroeste 0 -- -- 67
2020-08-30 06:00:00 12 36 Oeste 54 Oeste 0 -- -- 65
2020-08-30 05:00:00 12.4 41 Oeste 66 Oeste 0 -- -- 63
2020-08-30 04:00:00 12.4 38 Oeste 58 Noroeste 0 -- -- 65
2020-08-30 03:00:00 12.5 35 Oeste 62 Oeste 0 -- -- 62
2020-08-30 02:00:00 12.8 45 Oeste 63 Oeste 0 -- -- 64
2020-08-30 01:00:00 13.1 43 Oeste 63 Oeste 0 -- -- 69
2020-08-30 00:00:00 13.8 48 Oeste 64 Oeste 0 -- -- 70
2020-08-29 23:00:00 14.6 39 Oeste 66 Noroeste 0 -- -- 66
2020-08-29 22:00:00 15.6 34 Noroeste 52 Oeste 0 -- -- 60
2020-08-29 21:00:00 16.2 34 Oeste 53 Noroeste 0 -- -- 60
2020-08-29 20:00:00 17.3 40 Noroeste 68 Oeste 0 -- -- 54
2020-08-29 19:00:00 19.9 40 Noroeste 66 Noroeste 0 -- -- 43
2020-08-29 18:00:00 21.9 39 Noroeste 60 Noroeste 0 -- -- 37
2020-08-29 17:00:00 22.9 32 Noroeste 57 Noroeste 0 -- -- 35
2020-08-29 16:00:00 22.2 40 Oeste 53 Noroeste 0 -- -- 35
2020-08-29 15:00:00 21.9 33 Oeste 60 Noroeste 0 -- -- 36
2020-08-29 14:00:00 21.5 33 Noroeste 51 Noroeste 0 -- -- 39
2020-08-29 13:00:00 20.6 33 Noroeste 52 Noroeste 0 -- -- 41
2020-08-29 12:00:00 19.1 29 Oeste 51 Oeste 0 -- -- 47
2020-08-29 11:00:00 17.6 35 Oeste 53 Oeste 0 -- -- 53
2020-08-29 10:00:00 15.8 31 Oeste 50 Oeste 0 -- -- 59
2020-08-29 09:00:00 13.7 11 Noroeste 36 Noroeste 0 -- -- 65
2020-08-29 08:00:00 13.8 19 Noroeste 34 Oeste 0 -- -- 65
2020-08-29 07:00:00 14.1 24 Oeste 36 Oeste 0 -- -- 66
2020-08-29 06:00:00 14.4 24 Oeste 37 Oeste 0 -- -- 65
2020-08-29 05:00:00 14.5 28 Oeste 45 Noroeste 0 -- -- 64
2020-08-29 04:00:00 14.9 26 Oeste 49 Oeste 0 -- -- 63
2020-08-29 03:00:00 15.3 24 Noroeste 43 Oeste 0 -- -- 62
2020-08-29 02:00:00 15.4 28 Oeste 49 Oeste 0 -- -- 64
2020-08-29 01:00:00 15.3 28 Oeste 53 Oeste 0 -- -- 65
2020-08-29 00:00:00 15.7 39 Noroeste 65 Oeste 0 -- -- 66
2020-08-28 23:00:00 16.3 32 Oeste 54 Oeste 0 -- -- 65
2020-08-28 22:00:00 16.8 42 Oeste 62 Oeste 0 -- -- 65
2020-08-28 21:00:00 18.2 34 Oeste 58 Oeste 0 -- -- 63
2020-08-28 20:00:00 20.1 35 Oeste 53 Oeste 0 -- -- 56
2020-08-28 19:00:00 22.5 33 Noroeste 46 Noroeste 0 -- -- 49
2020-08-28 18:00:00 24.9 31 Noroeste 47 Noroeste 0 -- -- 47
2020-08-28 17:00:00 26.7 32 Noroeste 45 Noroeste 0 -- -- 45
2020-08-28 16:00:00 26.5 30 Noroeste 43 Oeste 0 -- -- 48
2020-08-28 15:00:00 28.9 25 Noroeste 39 Noroeste 0 -- -- 44
2020-08-28 14:00:00 27.9 25 Oeste 35 Oeste 0 -- -- 49
2020-08-28 13:00:00 25.6 23 Oeste 33 Noroeste 0 -- -- 55
2020-08-28 12:00:00 26.8 18 Noroeste 31 Noroeste 0 -- -- 51
2020-08-28 11:00:00 26.2 18 Noroeste 28 Noroeste 0 -- -- 53
2020-08-28 10:00:00 23.3 16 Oeste 32 Oeste 0 -- -- 63
2020-08-28 09:00:00 20.6 21 Oeste 43 Oeste 0 -- -- 72
2020-08-28 08:00:00 19.5 24 Oeste 41 Oeste 0 -- -- 76
2020-08-28 07:00:00 19.8 28 Oeste 42 Oeste 0 -- -- 74
2020-08-28 06:00:00 20 15 Oeste 32 Noroeste 0 -- -- 73
2020-08-28 05:00:00 20.5 4 Oeste 18 Oeste 0 -- -- 73
2020-08-28 04:00:00 21.3 5 Sudoeste 33 Oeste 0 -- -- 69
2020-08-28 03:00:00 21.7 12 Oeste 29 Oeste 0 -- -- 68
2020-08-28 02:00:00 22.1 7 Sudoeste 28 Noroeste 0 -- -- 66
2020-08-28 01:00:00 23.4 5 Noroeste 24 Oeste 0 -- -- 62
2020-08-28 00:00:00 25.2 10 Noroeste 24 Oeste 0 -- -- 55
2020-08-27 23:00:00 25.1 6 Sudeste 15 Sudeste 0 -- -- 46
2020-08-27 22:00:00 25.7 3 Nordeste 10 Sudeste 0 -- -- 42
2020-08-27 21:00:00 28.8 5 Sudeste 10 Este 0 -- -- 33
2020-08-27 20:00:00 32.8 6 Este 19 Norte 0 -- -- 28
2020-08-27 19:00:00 34.9 7 Norte 16 Nordeste 0 -- -- 26
2020-08-27 18:00:00 35.5 9 Norte 18 Norte 0 -- -- 27
2020-08-27 17:00:00 34.9 6 Nordeste 21 Norte 0 -- -- 29
2020-08-27 16:00:00 34.7 9 Oeste 22 Noroeste 0 -- -- 30
2020-08-27 15:00:00 33.7 11 Noroeste 23 Noroeste 0 -- -- 32
2020-08-27 14:00:00 32.6 12 Noroeste 26 Noroeste 0 -- -- 34
2020-08-27 13:00:00 31.4 9 Noroeste 22 Oeste 0 -- -- 36
2020-08-27 12:00:00 28.2 14 Sudoeste 25 Noroeste 0 -- -- 45
2020-08-27 11:00:00 27.2 18 Noroeste 23 Oeste 0 -- -- 49
2020-08-27 10:00:00 24.9 11 Noroeste 27 Norte 0 -- -- 56
2020-08-27 09:00:00 22.7 6 Oeste 24 Oeste 0 -- -- 63
2020-08-27 08:00:00 21 14 Oeste 32 Oeste 0 -- -- 70
2020-08-27 07:00:00 20.6 4 Este 14 Sudoeste 0 -- -- 65
2020-08-27 06:00:00 21.5 4 Sudeste 18 Oeste 0 -- -- 60
2020-08-27 05:00:00 22.5 5 Sudeste 23 Oeste 0 -- -- 55
2020-08-27 04:00:00 23 7 Sur 20 Sudoeste 0 -- -- 53
2020-08-27 03:00:00 23.7 8 Sur 24 Sudoeste 0 -- -- 53
2020-08-27 02:00:00 24.7 8 Sudoeste 18 Sudoeste 0 -- -- 53
2020-08-27 01:00:00 25.8 8 Noroeste 27 Noroeste 0 -- -- 49
2020-08-27 00:00:00 26.2 2 Sudoeste 26 Noroeste 0 -- -- 49
2020-08-26 23:00:00 27.5 14 Noroeste 24 Noroeste 0 -- -- 46
2020-08-26 22:00:00 25.7 8 Sudeste 12 Sudeste 0 -- -- 46
2020-08-26 21:00:00 27 8 Oeste 11 Oeste 0 -- -- 42
2020-08-26 20:00:00 32.1 5 Este 19 Este 0 -- -- 33
2020-08-26 19:00:00 33.8 10 Este 17 Este 0 -- -- 30
2020-08-26 18:00:00 36.1 9 Noroeste 16 Norte 0 -- -- 26
2020-08-26 17:00:00 34.3 8 Nordeste 23 Norte 0 -- -- 29
2020-08-26 16:00:00 34.4 9 Norte 21 Norte 0 -- -- 30
2020-08-26 15:00:00 32.6 7 Norte 22 Norte 0 -- -- 33
2020-08-26 14:00:00 32 8 Norte 18 Norte 0 -- -- 35
2020-08-26 13:00:00 30 5 Norte 21 Noroeste 0 -- -- 39
2020-08-26 12:00:00 28.6 9 Oeste 24 Oeste 0 -- -- 43
2020-08-26 11:00:00 26.2 14 Noroeste 29 Oeste 0 -- -- 47
2020-08-26 10:00:00 23.6 17 Oeste 26 Oeste 0 -- -- 53
2020-08-26 09:00:00 21.8 8 Oeste 17 Oeste 0 -- -- 58
2020-08-26 08:00:00 19.1 4 Sur 15 Noroeste 0 -- -- 64
2020-08-26 07:00:00 19.3 4 Norte 14 Oeste 0 -- -- 62
2020-08-26 06:00:00 20.4 5 Sur 32 Sudoeste 0 -- -- 59
2020-08-26 05:00:00 20.7 18 Oeste 35 Oeste 0 -- -- 57
2020-08-26 04:00:00 21.2 20 Oeste 46 Oeste 0 -- -- 54
2020-08-26 03:00:00 22.4 8 Norte 22 Noroeste 0 -- -- 50
2020-08-26 02:00:00 22.9 10 Sudoeste 19 Sudoeste 0 -- -- 49
2020-08-26 01:00:00 23.7 3 Nordeste 11 Este 0 -- -- 46
2020-08-26 00:00:00 23.3 5 Este 15 Sudeste 0 -- -- 42
2020-08-25 23:00:00 24.1 5 Sur 11 Sudeste 0 -- -- 39
2020-08-25 22:00:00 26.5 7 Sur 10 Sudeste 0 -- -- 34
2020-08-25 21:00:00 30.2 6 Este 15 Este 0 -- -- 28
2020-08-25 20:00:00 32.9 13 Este 21 Sudeste 0 -- -- 25
2020-08-25 19:00:00 34.5 9 Este 20 Nordeste 0 -- -- 22
2020-08-25 18:00:00 35 6 Este 26 Nordeste 0 -- -- 21
2020-08-25 17:00:00 35.4 9 Norte 21 Norte 0 -- -- 19
2020-08-25 16:00:00 34.5 9 Nordeste 21 Este 0 -- -- 24
2020-08-25 15:00:00 33.8 6 Nordeste 16 Nordeste 0 -- -- 26
2020-08-25 14:00:00 32.3 7 Norte 20 Nordeste 0 -- -- 30
2020-08-25 13:00:00 30.9 9 Nordeste 17 Norte 0 -- -- 31
2020-08-25 12:00:00 29.7 8 Noroeste 18 Noroeste 0 -- -- 33
2020-08-25 11:00:00 27.1 7 Norte 12 Nordeste 0 -- -- 36
2020-08-25 10:00:00 24.8 6 Norte 12 Norte 0 -- -- 40
2020-08-25 09:00:00 22.3 2 Sudoeste 11 Sudeste 0 -- -- 46
2020-08-25 08:00:00 16.7 8 Sudeste 13 Sudeste 0 -- -- 60
2020-08-25 07:00:00 15.8 5 Sudeste 12 Sudeste 0 -- -- 61
2020-08-25 06:00:00 16.7 7 Sudeste 13 Sudeste 0 -- -- 59
2020-08-25 05:00:00 17.2 11 Sudeste 13 Sudeste 0 -- -- 57
2020-08-25 04:00:00 17.5 11 Sudeste 14 Sudeste 0 -- -- 56
2020-08-25 03:00:00 17.7 9 Sudeste 15 Sudeste 0 -- -- 55
2020-08-25 02:00:00 18.2 6 Sudeste 15 Sudeste 0 -- -- 53
2020-08-25 01:00:00 18.5 11 Sudeste 15 Sudeste 0 -- -- 52
2020-08-25 00:00:00 18.9 10 Sudeste 14 Sudeste 0 -- -- 53
2020-08-24 23:00:00 19.4 6 Sudeste 12 Sudeste 0 -- -- 52
2020-08-24 22:00:00 20.9 9 Sudeste 11 Sudeste 0 -- -- 48
2020-08-24 21:00:00 23.1 2 Oeste 13 Norte 0 -- -- 42
2020-08-24 20:00:00 28.5 8 Norte 12 Norte 0 -- -- 33
2020-08-24 19:00:00 29.8 5 Noroeste 18 Noroeste 0 -- -- 32
2020-08-24 18:00:00 29.5 10 Noroeste 21 Noroeste 0 -- -- 32
2020-08-24 17:00:00 29.8 12 Noroeste 27 Noroeste 0 -- -- 32
2020-08-24 16:00:00 29.4 16 Oeste 26 Noroeste 0 -- -- 33
2020-08-24 15:00:00 27.7 15 Oeste 32 Oeste 0 -- -- 37
2020-08-24 14:00:00 26.8 14 Noroeste 34 Noroeste 0 -- -- 39
2020-08-24 13:00:00 24.9 18 Oeste 34 Oeste 0 -- -- 42
2020-08-24 12:00:00 23.4 24 Noroeste 39 Oeste 0 -- -- 44
2020-08-24 11:00:00 21.2 22 Oeste 39 Noroeste 0 -- -- 51
2020-08-24 10:00:00 19.8 6 Oeste 25 Oeste 0 -- -- 57
2020-08-24 09:00:00 18.3 12 Noroeste 32 Noroeste 0 -- -- 62
2020-08-24 08:00:00 16.2 7 Norte 22 Oeste 0 -- -- 69
2020-08-24 07:00:00 16 8 Norte 41 Noroeste 0 -- -- 70
2020-08-24 06:00:00 16.2 15 Noroeste 36 Oeste 0 -- -- 68
2020-08-24 05:00:00 15.9 9 Noroeste 31 Noroeste 0 -- -- 70
2020-08-24 04:00:00 16.9 15 Noroeste 51 Oeste 0 -- -- 65
2020-08-24 03:00:00 17.2 33 Oeste 54 Oeste 0 -- -- 64
2020-08-24 02:00:00 18.2 34 Oeste 52 Oeste 0 -- -- 57
2020-08-24 01:00:00 18.8 21 Oeste 48 Oeste 0 -- -- 53
2020-08-24 00:00:00 19.9 30 Oeste 52 Oeste 0 -- -- 50
2020-08-23 23:00:00 21.1 44 Oeste 64 Oeste 0 -- -- 45
2020-08-23 22:00:00 21.8 31 Oeste 48 Oeste 0 -- -- 45
2020-08-23 21:00:00 22.7 24 Oeste 42 Oeste 0 -- -- 44
2020-08-23 20:00:00 25.3 23 Noroeste 39 Noroeste 0 -- -- 35
2020-08-23 19:00:00 27.3 22 Noroeste 40 Oeste 0 -- -- 30
2020-08-23 18:00:00 28.3 26 Noroeste 37 Oeste 0 -- -- 24
2020-08-23 17:00:00 28.5 26 Noroeste 40 Noroeste 0 -- -- 28
2020-08-23 16:00:00 28.3 22 Noroeste 37 Norte 0 -- -- 30
2020-08-23 15:00:00 27.5 24 Noroeste 44 Noroeste 0 -- -- 31
2020-08-23 14:00:00 27.4 24 Noroeste 42 Oeste 0 -- -- 33
2020-08-23 13:00:00 25.4 28 Oeste 44 Noroeste 0 -- -- 35
2020-08-23 12:00:00 24.6 24 Oeste 47 Noroeste 0 -- -- 39
2020-08-23 11:00:00 22.4 24 Oeste 50 Oeste 0 -- -- 52
2020-08-23 10:00:00 20.3 33 Oeste 49 Oeste 0 -- -- 58
2020-08-23 09:00:00 18.8 22 Oeste 35 Oeste 0 -- -- 65
2020-08-23 08:00:00 17.5 22 Oeste 35 Oeste 0 -- -- 67
2020-08-23 07:00:00 17.8 17 Oeste 35 Oeste 0 -- -- 65
2020-08-23 06:00:00 17.9 30 Oeste 55 Oeste 0 -- -- 67
2020-08-23 05:00:00 17.9 38 Oeste 53 Oeste 0 -- -- 68
2020-08-23 04:00:00 17.8 40 Oeste 57 Oeste 0 -- -- 70
2020-08-23 03:00:00 18.2 37 Oeste 53 Oeste 0 -- -- 68
2020-08-23 02:00:00 18.7 16 Oeste 40 Oeste 0 -- -- 64
2020-08-23 01:00:00 20.1 24 Oeste 41 Noroeste 0 -- -- 57
2020-08-23 00:00:00 21.7 25 Oeste 43 Oeste 0 -- -- 51
2020-08-22 23:00:00 22.7 25 Oeste 38 Oeste 0 -- -- 48
2020-08-22 22:00:00 24 23 Oeste 34 Noroeste 0 -- -- 44
2020-08-22 21:00:00 25.3 20 Noroeste 27 Noroeste 0 -- -- 41
2020-08-22 20:00:00 28.4 18 Noroeste 26 Noroeste 0 -- -- 35
2020-08-22 19:00:00 29.8 19 Noroeste 31 Noroeste 0 -- -- 33
2020-08-22 18:00:00 30.6 16 Noroeste 29 Noroeste 0 -- -- 33
2020-08-22 17:00:00 30.8 18 Noroeste 32 Noroeste 0 -- -- 33
2020-08-22 16:00:00 30.4 19 Noroeste 33 Oeste 0 -- -- 32
2020-08-22 15:00:00 30.4 15 Oeste 34 Noroeste 0 -- -- 34
2020-08-22 14:00:00 28.9 16 Noroeste 37 Oeste 0 -- -- 38
2020-08-22 13:00:00 27.9 19 Noroeste 33 Noroeste 0 -- -- 37
2020-08-22 12:00:00 26.2 16 Noroeste 28 Oeste 0 -- -- 44
2020-08-22 11:00:00 24.8 19 Oeste 29 Oeste 0 -- -- 51
2020-08-22 10:00:00 22.6 19 Noroeste 29 Oeste 0 -- -- 59
2020-08-22 09:00:00 20.9 18 Oeste 31 Oeste 0 -- -- 63
2020-08-22 08:00:00 19.5 6 Norte 15 Norte 0 -- -- 70
2020-08-22 07:00:00 19 8 Noroeste 17 Noroeste 0 -- -- 73
2020-08-22 06:00:00 19.3 7 Noroeste 18 Oeste 0 -- -- 74
2020-08-22 05:00:00 20.3 3 Norte 19 Norte 0 -- -- 67
2020-08-22 04:00:00 20.5 5 Noroeste 23 Noroeste 0 -- -- 69
2020-08-22 03:00:00 20.5 5 Noroeste 24 Oeste 0 -- -- 74
2020-08-22 02:00:00 21.5 9 Noroeste 40 Oeste 0 -- -- 72
2020-08-22 01:00:00 22.2 26 Oeste 41 Oeste 0 -- -- 68
2020-08-22 00:00:00 22.6 15 Noroeste 32 Noroeste 0 -- -- 67
2020-08-21 23:00:00 24.2 15 Noroeste 46 Oeste 0 -- -- 64
2020-08-21 22:00:00 26.7 27 Noroeste 48 Oeste 0 -- -- 56
2020-08-21 21:00:00 30.4 7 Sudoeste 18 Sudeste 0 -- -- 26
2020-08-21 20:00:00 33.9 13 Este 28 Este 0 -- -- 23
2020-08-21 19:00:00 34.8 15 Este 28 Este 0 -- -- 22
2020-08-21 18:00:00 36.3 8 Norte 23 Este 0 -- -- 22
2020-08-21 17:00:00 36 10 Nordeste 26 Norte 0 -- -- 23
2020-08-21 16:00:00 36.3 9 Norte 30 Este 0 -- -- 24
2020-08-21 15:00:00 34.9 10 Nordeste 24 Norte 0 -- -- 27
2020-08-21 14:00:00 34.3 7 Nordeste 24 Este 0 -- -- 28
2020-08-21 13:00:00 32.8 5 Nordeste 22 Noroeste 0 -- -- 34
2020-08-21 12:00:00 31.6 5 Este 18 Este 0 -- -- 35
2020-08-21 11:00:00 29.1 5 Este 8 Este 0 -- -- 39
2020-08-21 10:00:00 26.4 5 Este 9 Este 0 -- -- 51
2020-08-21 09:00:00 23.3 0 Calma 9 Sudeste 0 -- -- 68
2020-08-21 08:00:00 18.9 4 Sudeste 9 Sudeste 0 -- -- 81
2020-08-21 07:00:00 17.5 5 Sudeste 10 Sudeste 0 -- -- 84
2020-08-21 06:00:00 17.4 8 Sudeste 10 Sudeste 0 -- -- 82
2020-08-21 05:00:00 18.9 6 Sur 8 Sudoeste 0 -- -- 76
2020-08-21 04:00:00 19.4 2 Noroeste 7 Sudeste 0 -- -- 72
2020-08-21 03:00:00 20.4 4 Sur 9 Sudoeste 0 -- -- 66
2020-08-21 02:00:00 21.3 6 Sur 9 Sur 0 -- -- 57
2020-08-21 01:00:00 21.4 0 Calma 5 Sudeste 0 -- -- 51
2020-08-21 00:00:00 22.6 2 Este 10 Sudeste 0 -- -- 47